Time;durP1;ratioP1;P1;durP2;ratioP2;P2;SDS_P1;SDS_P2;PMS_P1;PMS_P2;Temp;Humidity;BMP_temperature;BMP_pressure;BME280_temperature;BME280_humidity;BME280_pressure;Samples;Min_cycle;Max_cycle;Signal;HPM_P1;HPM_P2
2023/05/21 00:00:09;;;;;;;;;;;;;;;21.01;55.93;101364.36;2356743;74;51492;-78
2023/05/21 00:03:04;;;;;;;;;;;;;;;21.00;56.03;101358.67;2353734;75;22423;-78
2023/05/21 00:06:06;;;;;;;;;;;;;;;20.98;56.10;101359.35;2356700;75;51498;-78
2023/05/21 00:09:08;;;;;;;;;;;;;;;20.97;56.13;101352.31;2329788;75;52635;-78
2023/05/21 00:12:09;;;;;;;;;;;;;;;20.97;56.10;101350.97;2354814;75;51468;-77
2023/05/21 00:15:11;;;;;;;;;;;;;;;20.98;56.08;101347.25;2329791;75;51666;-77
2023/05/21 00:18:13;;;;;;;;;;;;;;;20.97;56.12;101345.59;2357086;75;50278;-78
2023/05/21 00:21:16;;;;;;;;;;;;;;;20.98;56.07;101345.91;2351389;75;51162;-77
2023/05/21 00:24:17;;;;;;;;;;;;;;;20.96;56.16;101350.66;2357867;75;50131;-77
2023/05/21 00:27:19;;;;;;;;;;;;;;;20.96;56.12;101340.38;2357687;75;50419;-77
2023/05/21 00:30:21;;;;;;;;;;;;;;;20.96;56.12;101341.23;2358151;75;51490;-75
2023/05/21 00:33:25;;;;;;;;;;;;;;;20.94;56.18;101330.33;2333903;75;51519;-78
2023/05/21 00:36:26;;;;;;;;;;;;;;;20.94;56.14;101335.20;2362436;74;22393;-77
2023/05/21 00:39:27;;;;;;;;;;;;;;;20.94;56.16;101329.81;2358124;75;50385;-76
2023/05/21 00:42:29;;;;;;;;;;;;;;;20.95;56.11;101326.09;2362636;75;50705;-77
2023/05/21 00:45:31;;;;;;;;;;;;;;;20.93;56.19;101329.98;2384678;74;51121;-78
2023/05/21 00:48:32;;;;;;;;;;;;;;;20.93;56.19;101325.44;2314466;75;51231;-76
2023/05/21 00:51:34;;;;;;;;;;;;;;;20.92;56.23;101322.42;2353908;75;50216;-78
2023/05/21 00:54:35;;;;;;;;;;;;;;;20.92;56.18;101319.73;2354854;75;50231;-77
2023/05/21 00:57:37;;;;;;;;;;;;;;;20.93;56.19;101325.95;2329854;75;51151;-78
2023/05/21 01:00:43;;;;;;;;;;;;;;;20.93;56.19;101313.33;2354394;75;50188;-77
2023/05/21 01:03:42;;;;;;;;;;;;;;;20.92;56.24;101310.33;2353532;74;22414;-77
2023/05/21 01:06:43;;;;;;;;;;;;;;;20.93;56.16;101313.33;2354281;75;50393;-76
2023/05/21 01:09:45;;;;;;;;;;;;;;;20.92;56.26;101308.15;2328427;75;52484;-78
2023/05/21 01:12:47;;;;;;;;;;;;;;;20.92;56.19;101306.29;2356832;74;51403;-78
2023/05/21 01:15:48;;;;;;;;;;;;;;;20.92;56.22;101304.11;2354913;75;51543;-78
2023/05/21 01:18:50;;;;;;;;;;;;;;;20.90;56.22;101304.28;2357676;75;51653;-77
2023/05/21 01:21:52;;;;;;;;;;;;;;;20.91;56.20;101308.66;2390293;73;50949;-78
2023/05/21 01:24:54;;;;;;;;;;;;;;;20.90;56.17;101308.31;2356195;75;51418;-78
2023/05/21 01:27:56;;;;;;;;;;;;;;;20.91;56.13;101300.59;2353830;75;51424;-78
2023/05/21 01:30:58;;;;;;;;;;;;;;;20.92;56.10;101304.94;2354342;75;50307;-77
2023/05/21 01:34:00;;;;;;;;;;;;;;;20.92;56.20;101302.77;2354303;75;50055;-76
2023/05/21 01:37:03;;;;;;;;;;;;;;;20.91;56.17;101303.28;2354299;75;51590;-78
2023/05/21 01:40:07;;;;;;;;;;;;;;;20.92;56.13;101304.11;2354832;75;50455;-79
2023/05/21 01:43:08;;;;;;;;;;;;;;;20.91;56.22;101304.63;2354538;75;50261;-78
2023/05/21 01:46:10;;;;;;;;;;;;;;;20.90;56.21;101300.77;2380051;74;51150;-79
2023/05/21 01:49:12;;;;;;;;;;;;;;;20.89;56.29;101302.63;2358967;75;51492;-79
2023/05/21 01:52:13;;;;;;;;;;;;;;;20.88;56.30;101295.07;2352983;75;50682;-78
2023/05/21 01:55:15;;;;;;;;;;;;;;;20.90;56.25;101299.42;2351164;75;50207;-79
2023/05/21 01:58:17;;;;;;;;;;;;;;;20.88;56.34;101296.41;2377869;74;51184;-77
2023/05/21 02:01:19;;;;;;;;;;;;;;;20.89;56.21;101294.55;2354826;75;51592;-77
2023/05/21 02:04:21;;;;;;;;;;;;;;;20.90;56.23;101296.22;2355029;74;50628;-78
2023/05/21 02:07:23;;;;;;;;;;;;;;;20.90;56.20;101281.42;2350216;75;51436;-78
2023/05/21 02:10:25;;;;;;;;;;;;;;;20.88;56.22;101289.69;2326732;75;51635;-78
2023/05/21 02:13:27;;;;;;;;;;;;;;;20.88;56.23;101287.48;2355433;75;50231;-77
2023/05/21 02:16:29;;;;;;;;;;;;;;;20.87;56.22;101281.27;2350391;74;51589;-77
2023/05/21 02:19:31;;;;;;;;;;;;;;;20.84;56.36;101273.58;2352970;75;50710;-77
2023/05/21 02:22:32;;;;;;;;;;;;;;;20.86;56.34;101278.78;2344558;74;52460;-77
2023/05/21 02:25:34;;;;;;;;;;;;;;;20.84;56.40;101275.44;2351248;75;51441;-75
2023/05/21 02:28:35;;;;;;;;;;;;;;;20.84;56.39;101272.75;2352895;75;50212;-75
2023/05/21 02:31:37;;;;;;;;;;;;;;;20.82;56.51;101269.39;2352956;75;50211;-75
2023/05/21 02:34:41;;;;;;;;;;;;;;;20.80;56.50;101266.88;2378465;74;51729;-75
2023/05/21 02:37:42;;;;;;;;;;;;;;;20.81;56.45;101275.80;2351053;74;22769;-77
2023/05/21 02:40:44;;;;;;;;;;;;;;;20.84;56.40;101280.81;2350833;75;51595;-76
2023/05/21 02:43:46;;;;;;;;;;;;;;;20.86;56.29;101273.41;2350913;75;50281;-77
2023/05/21 02:46:48;;;;;;;;;;;;;;;20.86;56.29;101276.92;2378276;73;51018;-75
2023/05/21 02:49:50;;;;;;;;;;;;;;;20.86;56.33;101274.23;2347013;75;50647;-75
2023/05/21 02:52:51;;;;;;;;;;;;;;;20.81;56.51;101263.70;2360365;75;49963;-75
2023/05/21 02:55:53;;;;;;;;;;;;;;;20.80;56.58;101262.02;2365974;75;50338;-75
2023/05/21 02:58:54;;;;;;;;;;;;;;;20.79;56.58;101263.87;2328614;75;51671;-75
2023/05/21 03:01:56;;;;;;;;;;;;;;;20.77;56.70;101258.34;2355269;75;50405;-76
2023/05/21 03:04:58;;;;;;;;;;;;;;;20.78;56.61;101256.84;2356912;75;50453;-77
2023/05/21 03:07:59;;;;;;;;;;;;;;;20.79;56.61;101252.28;2355494;75;50235;-75
2023/05/21 03:11:01;;;;;;;;;;;;;;;20.77;56.67;101252.97;2385678;74;51733;-76
2023/05/21 03:14:02;;;;;;;;;;;;;;;20.75;56.67;101250.45;2357385;75;50702;-76
2023/05/21 03:17:12;;;;;;;;;;;;;;;20.77;56.54;101254.31;2357520;75;51535;-75
2023/05/21 03:20:15;;;;;;;;;;;;;;;20.82;56.37;101254.61;2357329;74;22403;-78
2023/05/21 03:23:17;;;;;;;;;;;;;;;20.82;56.35;101253.26;2361705;75;22241;-75
2023/05/21 03:26:18;;;;;;;;;;;;;;;20.81;56.39;101246.22;2334228;75;51168;-75
2023/05/21 03:29:20;;;;;;;;;;;;;;;20.80;56.40;101253.94;2358884;75;50628;-75
2023/05/21 03:32:22;;;;;;;;;;;;;;;20.81;56.38;101255.63;2365866;75;50399;-78
2023/05/21 03:35:23;;;;;;;;;;;;;;;20.81;56.39;101254.29;2387825;74;50198;-75
2023/05/21 03:38:25;;;;;;;;;;;;;;;20.82;56.38;101253.26;2333479;75;51330;-73
2023/05/21 03:41:27;;;;;;;;;;;;;;;20.81;56.31;101244.88;2363302;75;50644;-76
2023/05/21 03:44:31;;;;;;;;;;;;;;;20.80;56.33;101254.77;2359937;75;51530;-77
2023/05/21 03:47:31;;;;;;;;;;;;;;;20.80;56.39;101253.94;2362710;75;21910;-75
2023/05/21 03:50:33;;;;;;;;;;;;;;;20.80;56.33;101257.98;2389903;73;52599;-76
2023/05/21 03:53:36;;;;;;;;;;;;;;;20.81;56.35;101255.63;2351467;75;52436;-75
2023/05/21 03:56:37;;;;;;;;;;;;;;;20.80;56.32;101252.60;2351492;75;51503;-76
2023/05/21 03:59:39;;;;;;;;;;;;;;;20.80;56.33;101255.29;2351313;74;50604;-76
2023/05/21 04:02:40;;;;;;;;;;;;;;;20.82;56.25;101255.95;2378446;74;52316;-74
2023/05/21 04:05:42;;;;;;;;;;;;;;;20.81;56.26;101255.63;2351432;75;51401;-74
2023/05/21 04:08:44;;;;;;;;;;;;;;;20.80;56.30;101248.56;2350900;75;50219;-75
2023/05/21 04:11:46;;;;;;;;;;;;;;;20.80;56.28;101253.94;2351048;75;50233;-74
2023/05/21 04:14:47;;;;;;;;;;;;;;;20.79;56.36;101252.28;2351521;74;51601;-75
2023/05/21 04:17:51;;;;;;;;;;;;;;;20.80;56.33;101259.33;2353335;75;50262;-76
2023/05/21 04:20:52;;;;;;;;;;;;;;;20.78;56.43;101267.59;2353180;75;50734;-76
2023/05/21 04:23:56;;;;;;;;;;;;;;;20.77;56.47;101263.22;2356798;75;51448;-75
2023/05/21 04:27:00;;;;;;;;;;;;;;;20.79;56.40;101261.70;2354758;75;22339;-75
2023/05/21 04:30:00;;;;;;;;;;;;;;;20.81;56.35;101267.73;2356817;75;22218;-75
2023/05/21 04:33:02;;;;;;;;;;;;;;;20.81;56.25;101267.22;2356766;75;51495;-78
2023/05/21 04:36:04;;;;;;;;;;;;;;;20.81;56.24;101269.08;2354460;75;50774;-74
2023/05/21 04:39:06;;;;;;;;;;;;;;;20.82;56.22;101264.84;2327967;75;49507;-75
2023/05/21 04:42:09;;;;;;;;;;;;;;;20.84;56.15;101268.20;2356420;74;50849;-76
2023/05/21 04:45:11;;;;;;;;;;;;;;;20.83;56.20;101277.30;2354697;75;50356;-77
2023/05/21 04:48:14;;;;;;;;;;;;;;;20.83;56.21;101280.47;2354351;75;50579;-77
2023/05/21 04:51:16;;;;;;;;;;;;;;;20.82;56.33;101264.84;2381082;73;52593;-76
2023/05/21 04:54:17;;;;;;;;;;;;;;;20.86;56.27;101277.44;2360658;75;50238;-78
2023/05/21 04:57:20;;;;;;;;;;;;;;;20.86;56.18;101276.92;2362160;75;49973;-75
2023/05/21 05:00:24;;;;;;;;;;;;;;;20.92;56.13;101274.52;2362043;74;51807;-77
2023/05/21 05:03:25;;;;;;;;;;;;;;;20.96;56.40;101275.80;2360544;75;22779;-75
2023/05/21 05:06:27;;;;;;;;;;;;;;;20.93;56.55;101281.56;2361838;75;51491;-76
2023/05/21 05:09:30;;;;;;;;;;;;;;;20.93;56.67;101272.97;2360313;75;50326;-75
2023/05/21 05:12:32;;;;;;;;;;;;;;;20.92;56.74;101283.42;2362113;75;50671;-75
2023/05/21 05:15:33;;;;;;;;;;;;;;;20.95;56.71;101277.67;2362277;75;52518;-75
2023/05/21 05:18:35;;;;;;;;;;;;;;;20.97;56.66;101281.53;2360962;75;51500;-75
2023/05/21 05:21:37;;;;;;;;;;;;;;;20.99;56.65;101287.06;2362707;74;50327;-75
2023/05/21 05:24:38;;;;;;;;;;;;;;;21.00;56.60;101283.33;2365636;75;50257;-74
2023/05/21 05:27:40;;;;;;;;;;;;;;;21.00;56.63;101283.33;2365562;75;50729;-75
2023/05/21 05:30:41;;;;;;;;;;;;;;;21.02;56.65;101277.78;2365794;75;51463;-75
2023/05/21 05:33:43;;;;;;;;;;;;;;;21.04;56.56;101283.79;2365856;75;51491;-75
2023/05/21 05:36:44;;;;;;;;;;;;;;;21.04;56.61;101279.75;2365665;75;51413;-76
2023/05/21 05:39:46;;;;;;;;;;;;;;;21.06;56.56;101279.89;2365435;75;51563;-77
2023/05/21 05:42:48;;;;;;;;;;;;;;;21.06;56.52;101279.89;2356772;75;50271;-76
2023/05/21 05:45:50;;;;;;;;;;;;;;;21.09;56.48;101274.17;2356610;75;51544;-75
2023/05/21 05:48:51;;;;;;;;;;;;;;;21.10;56.47;101270.97;2353615;75;50619;-75
2023/05/21 05:51:53;;;;;;;;;;;;;;;21.11;56.42;101273.97;2338886;75;51164;-76
2023/05/21 05:54:54;;;;;;;;;;;;;;;21.17;56.32;101283.16;2355358;75;50244;-76
2023/05/21 05:57:56;;;;;;;;;;;;;;;21.19;56.28;101276.56;2355797;75;50475;-75
2023/05/21 06:00:57;;;;;;;;;;;;;;;21.17;56.32;101279.12;2353680;75;50633;-75
2023/05/21 06:03:59;;;;;;;;;;;;;;;21.19;56.25;101275.73;2353781;75;51431;-75
2023/05/21 06:07:01;;;;;;;;;;;;;;;21.21;56.23;101279.08;2358588;75;50772;-76
2023/05/21 06:10:02;;;;;;;;;;;;;;;21.17;56.26;101272.39;2358741;75;50071;-77
2023/05/21 06:13:04;;;;;;;;;;;;;;;21.17;56.17;101265.66;2331622;75;51518;-77
2023/05/21 06:16:06;;;;;;;;;;;;;;;21.17;56.13;101273.25;2335248;75;52440;-77
2023/05/21 06:19:07;;;;;;;;;;;;;;;21.11;56.23;101268.59;2330649;75;50446;-78
2023/05/21 06:22:09;;;;;;;;;;;;;;;21.12;56.10;101269.41;2354554;75;50627;-78
2023/05/21 06:25:11;;;;;;;;;;;;;;;21.13;55.98;101272.45;2350590;75;50245;-77
2023/05/21 06:28:12;;;;;;;;;;;;;;;21.10;56.10;101265.58;2327430;75;51633;-77
2023/05/21 06:31:15;;;;;;;;;;;;;;;21.12;55.92;101264.03;2354536;75;50480;-78
2023/05/21 06:34:16;;;;;;;;;;;;;;;21.11;55.88;101261.86;2360427;75;51498;-77
2023/05/21 06:37:21;;;;;;;;;;;;;;;21.10;56.03;101267.76;2328996;75;51512;-77
2023/05/21 06:40:22;;;;;;;;;;;;;;;21.07;56.19;101264.09;2368620;75;51679;-76
2023/05/21 06:43:24;;;;;;;;;;;;;;;21.05;56.36;101266.12;2336213;75;51560;-77
2023/05/21 06:46:26;;;;;;;;;;;;;;;21.02;56.92;101262.47;2366673;75;50565;-77
2023/05/21 06:49:27;;;;;;;;;;;;;;;21.05;57.37;101252.67;2325780;75;51468;-77
2023/05/21 06:52:30;;;;;;;;;;;;;;;21.08;57.38;101256.86;2391751;74;51063;-76
2023/05/21 06:55:32;;;;;;;;;;;;;;;21.06;57.76;101252.98;2361933;74;50678;-76
2023/05/21 06:58:33;;;;;;;;;;;;;;;21.07;58.24;101257.37;2359994;75;50360;-76
2023/05/21 07:01:35;;;;;;;;;;;;;;;21.08;58.25;101259.03;2361705;75;50702;-76
2023/05/21 07:04:37;;;;;;;;;;;;;;;21.12;57.94;101247.89;2361995;75;51059;-76
2023/05/21 07:07:38;;;;;;;;;;;;;;;21.19;57.67;101251.52;2335418;75;50645;-77
2023/05/21 07:10:41;;;;;;;;;;;;;;;21.26;57.54;101261.87;2335871;75;50599;-79
2023/05/21 07:13:42;;;;;;;;;;;;;;;21.34;57.25;101257.73;2367110;75;50362;-77
2023/05/21 07:16:44;;;;;;;;;;;;;;;21.39;56.93;101254.52;2366481;75;50175;-77
2023/05/21 07:19:45;;;;;;;;;;;;;;;21.42;56.83;101257.66;2355971;75;50237;-77
2023/05/21 07:22:47;;;;;;;;;;;;;;;21.41;56.84;101258.69;2354783;75;50285;-77
2023/05/21 07:25:49;;;;;;;;;;;;;;;21.46;56.75;101259.48;2350700;75;50258;-77
2023/05/21 07:28:50;;;;;;;;;;;;;;;21.53;56.46;101253.68;2326601;75;51693;-77
2023/05/21 07:31:52;;;;;;;;;;;;;;;21.64;56.13;101256.39;2355202;75;51512;-77
2023/05/21 07:34:53;;;;;;;;;;;;;;;21.64;56.04;101251.84;2351038;75;50613;-77
2023/05/21 07:37:55;;;;;;;;;;;;;;;21.66;55.93;101258.39;2355037;75;51389;-77
2023/05/21 07:40:56;;;;;;;;;;;;;;;21.66;55.87;101242.23;2378104;74;51695;-78
2023/05/21 07:44:00;;;;;;;;;;;;;;;21.68;55.77;101250.94;2355453;75;51293;-78
2023/05/21 07:47:02;;;;;;;;;;;;;;;21.68;55.70;101249.10;2350865;75;50322;-78
2023/05/21 07:50:03;;;;;;;;;;;;;;;21.68;55.61;101248.24;2359448;75;51511;-77
2023/05/21 07:53:05;;;;;;;;;;;;;;;21.68;55.59;101242.86;2328261;75;52293;-77
2023/05/21 07:56:07;;;;;;;;;;;;;;;21.69;55.47;101244.55;2351351;75;50632;-77
2023/05/21 07:59:08;;;;;;;;;;;;;;;21.69;55.43;101249.93;2350821;75;50737;-77
2023/05/21 08:02:10;;;;;;;;;;;;;;;21.70;55.37;101242.16;2355442;75;50622;-77
2023/05/21 08:05:11;;;;;;;;;;;;;;;21.71;55.28;101239.81;2378641;74;49658;-77
2023/05/21 08:08:14;;;;;;;;;;;;;;;21.73;55.20;101240.43;2350682;75;50697;-77
2023/05/21 08:11:15;;;;;;;;;;;;;;;21.71;55.15;101243.33;2351188;75;50086;-77
2023/05/21 08:14:17;;;;;;;;;;;;;;;21.72;55.13;101239.60;2351117;75;50631;-77
2023/05/21 08:17:18;;;;;;;;;;;;;;;21.72;55.08;101233.39;2327002;75;51725;-77
2023/05/21 08:20:21;;;;;;;;;;;;;;;21.70;55.13;101239.47;2359630;75;50625;-77
2023/05/21 08:23:22;;;;;;;;;;;;;;;21.72;55.03;101240.12;2354786;75;51672;-80
2023/05/21 08:26:24;;;;;;;;;;;;;;;21.71;55.00;101237.12;2354037;75;50250;-77
2023/05/21 08:29:26;;;;;;;;;;;;;;;21.71;54.98;101241.16;2328349;75;51601;-77
2023/05/21 08:32:27;;;;;;;;;;;;;;;21.71;54.98;101242.50;2354667;75;50700;-77
2023/05/21 08:35:29;;;;;;;;;;;;;;;21.69;55.00;101229.73;2354876;75;51528;-77
2023/05/21 08:38:30;;;;;;;;;;;;;;;21.69;54.92;101229.73;2355006;75;51452;-77
2023/05/21 08:41:32;;;;;;;;;;;;;;;21.71;54.88;101239.81;2330262;75;52299;-77
2023/05/21 08:44:34;;;;;;;;;;;;;;;21.72;54.81;101234.21;2355145;75;50294;-77
2023/05/21 08:47:35;;;;;;;;;;;;;;;21.73;54.77;101235.05;2355699;74;50228;-77
2023/05/21 08:50:37;;;;;;;;;;;;;;;21.71;54.76;101227.17;2359644;75;50775;-78
2023/05/21 08:53:39;;;;;;;;;;;;;;;21.72;54.79;101234.21;2378218;74;52528;-78
2023/05/21 08:56:44;;;;;;;;;;;;;;;21.72;54.72;101234.73;2355580;75;51555;-78
2023/05/21 08:59:45;;;;;;;;;;;;;;;21.73;54.67;101233.20;2351383;75;22441;-78
2023/05/21 09:02:46;;;;;;;;;;;;;;;21.70;54.74;101234.91;2351971;75;50778;-79
2023/05/21 09:05:48;;;;;;;;;;;;;;;21.71;54.68;101231.21;2327604;75;52579;-79
2023/05/21 09:08:51;;;;;;;;;;;;;;;21.71;54.66;101227.17;2351804;74;51427;-78
2023/05/21 09:11:53;;;;;;;;;;;;;;;21.72;54.61;101234.73;2352457;75;51464;-78
2023/05/21 09:14:57;;;;;;;;;;;;;;;21.70;54.63;101230.04;2352268;75;50418;-77
2023/05/21 09:17:58;;;;;;;;;;;;;;;21.70;54.64;101232.73;2352342;75;22340;-79
2023/05/21 09:21:01;;;;;;;;;;;;;;;21.69;54.59;101227.87;2359024;75;50316;-77
2023/05/21 09:24:03;;;;;;;;;;;;;;;21.70;54.60;101230.04;2352025;75;50050;-78
2023/05/21 09:27:06;;;;;;;;;;;;;;;21.69;54.64;101222.48;2350495;75;51505;-78
2023/05/21 09:30:12;;;;;;;;;;;;;;;21.67;54.65;101225.04;2329077;75;51608;-78
2023/05/21 09:33:16;;;;;;;;;;;;;;;21.66;54.69;101224.73;2355704;74;50653;-78
2023/05/21 09:36:22;;;;;;;;;;;;;;;21.65;54.67;101229.25;2351441;75;51593;-78
2023/05/21 09:39:32;;;;;;;;;;;;;;;21.65;54.65;101221.17;2349713;75;21837;-78
2023/05/21 09:42:31;;;;;;;;;;;;;;;21.65;54.65;101220.34;2350429;74;22039;-79
2023/05/21 09:45:33;;;;;;;;;;;;;;;21.64;54.68;101217.34;2351314;75;50742;-78
2023/05/21 09:48:39;;;;;;;;;;;;;;;21.62;54.68;101217.52;2353705;75;51654;-79
2023/05/21 09:51:43;;;;;;;;;;;;;;;21.63;54.65;101212.96;2331865;75;50906;-78
2023/05/21 09:54:45;;;;;;;;;;;;;;;21.63;54.65;101202.19;2378887;74;51669;-78
2023/05/21 09:57:47;;;;;;;;;;;;;;;21.63;54.67;101207.58;2351057;75;50883;-78
2023/05/21 10:00:49;;;;;;;;;;;;;;;21.61;54.68;101205.61;2351384;75;50316;-78
2023/05/21 10:03:52;;;;;;;;;;;;;;;21.61;54.66;101198.88;2351235;75;50264;-78
2023/05/21 10:06:53;;;;;;;;;;;;;;;21.59;54.66;101200.92;2327587;75;51322;-78
2023/05/21 10:09:56;;;;;;;;;;;;;;;21.60;54.64;101206.62;2351691;75;50636;-78
2023/05/21 10:13:00;;;;;;;;;;;;;;;21.58;54.63;101197.40;2355268;75;50890;-78
2023/05/21 10:16:02;;;;;;;;;;;;;;;21.59;54.62;101188.28;2351714;75;50666;-79
2023/05/21 10:19:04;;;;;;;;;;;;;;;21.58;54.60;101191.16;2382562;73;51894;-77
2023/05/21 10:22:06;;;;;;;;;;;;;;;21.59;54.55;101190.15;2356706;74;50788;-78
2023/05/21 10:25:08;;;;;;;;;;;;;;;21.60;54.49;101174.30;2351724;75;50623;-78
2023/05/21 10:28:09;;;;;;;;;;;;;;;21.58;54.45;101174.52;2355734;75;50632;-78
2023/05/21 10:31:11;;;;;;;;;;;;;;;21.59;54.41;101168.61;2351627;75;51598;-78
2023/05/21 10:34:12;;;;;;;;;;;;;;;21.58;54.38;101174.52;2351738;75;50022;-78
2023/05/21 10:37:14;;;;;;;;;;;;;;;21.59;54.13;101170.78;2352816;74;50644;-78
2023/05/21 10:40:16;;;;;;;;;;;;;;;21.57;54.04;101155.84;2353484;75;50270;-78
2023/05/21 10:43:36;;;;;;;;;;;;;;;21.58;53.94;101166.92;2328925;75;51499;-78
2023/05/21 10:46:39;;;;;;;;;;;;;;;21.58;53.98;101161.05;2351977;75;50283;-78
2023/05/21 10:49:51;;;;;;;;;;;;;;;21.57;53.72;101154.48;2357089;75;50757;-78
2023/05/21 10:52:57;;;;;;;;;;;;;;;21.57;53.66;101149.10;2354485;75;50259;-77
2023/05/21 10:56:03;;;;;;;;;;;;;;;21.58;53.63;101149.41;2331564;75;51725;-77
2023/05/21 10:59:11;;;;;;;;;;;;;;;21.59;53.67;101160.52;2351667;74;51564;-78
2023/05/21 11:02:13;;;;;;;;;;;;;;;21.59;53.63;101161.88;2351788;75;51587;-77
2023/05/21 11:05:15;;;;;;;;;;;;;;;21.58;53.49;101154.31;2352930;74;50683;-79
2023/05/21 11:08:21;;;;;;;;;;;;;;;21.59;53.39;101161.88;2332648;75;51028;-79
2023/05/21 11:11:42;;;;;;;;;;;;;;;21.58;53.32;101152.97;2351782;75;50581;-78
2023/05/21 11:14:45;;;;;;;;;;;;;;;21.59;53.25;101145.20;2350941;75;50275;-79
2023/05/21 11:17:48;;;;;;;;;;;;;;;21.60;53.03;101154.10;2345599;74;50014;-79
2023/05/21 11:20:50;;;;;;;;;;;;;;;21.57;52.99;101155.84;2330572;75;51235;-78
2023/05/21 11:23:52;;;;;;;;;;;;;;;21.59;52.81;101153.80;2328849;76;51518;-79
2023/05/21 11:26:57;;;;;;;;;;;;;;;21.59;52.83;101137.64;2327639;76;50658;-78
2023/05/21 11:29:59;;;;;;;;;;;;;;;21.59;52.79;101147.06;2328512;76;50885;-78
2023/05/21 11:33:14;;;;;;;;;;;;;;;21.59;52.62;101150.58;2269568;77;51787;-77
2023/05/21 11:36:12;;;;;;;;;;;;;;;21.62;52.61;101145.33;2316209;76;22361;-78
2023/05/21 11:39:16;;;;;;;;;;;;;;;21.61;52.40;101141.80;2317121;76;50288;-79
2023/05/21 11:42:27;;;;;;;;;;;;;;;21.63;52.36;101138.41;2317233;77;50301;-78
2023/05/21 11:45:30;;;;;;;;;;;;;;;21.64;52.45;101147.33;2267990;77;51081;-78
2023/05/21 11:48:32;;;;;;;;;;;;;;;21.65;52.36;101140.38;2323586;75;51552;-78
2023/05/21 11:51:33;;;;;;;;;;;;;;;21.66;52.29;101141.23;2328489;75;53621;-78
2023/05/21 11:54:47;;;;;;;;;;;;;;;21.67;52.24;101133.47;2357559;74;51453;-79
2023/05/21 11:57:49;;;;;;;;;;;;;;;21.68;52.08;101136.47;2332120;75;50803;-78
2023/05/21 12:00:50;;;;;;;;;;;;;;;21.70;51.91;101138.47;2359094;75;50801;-77
2023/05/21 12:03:52;;;;;;;;;;;;;;;21.70;52.03;101137.95;2357696;75;50403;-77
2023/05/21 12:06:54;;;;;;;;;;;;;;;21.72;51.98;101137.25;2357332;74;51543;-79
2023/05/21 12:09:55;;;;;;;;;;;;;;;21.72;51.87;101129.17;2331700;75;51728;-78
2023/05/21 12:12:57;;;;;;;;;;;;;;;21.72;51.69;101135.08;2359519;74;50426;-78
2023/05/21 12:15:59;;;;;;;;;;;;;;;21.75;51.72;101126.08;2357721;75;50781;-78
2023/05/21 12:19:01;;;;;;;;;;;;;;;21.75;51.67;101125.26;2357728;74;51425;-78
2023/05/21 12:22:03;;;;;;;;;;;;;;;21.75;51.47;101122.56;2315319;76;51741;-77
2023/05/21 12:25:05;;;;;;;;;;;;;;;21.75;51.41;101124.73;2322319;75;50311;-78
2023/05/21 12:28:06;;;;;;;;;;;;;;;21.77;51.32;101132.64;2355867;75;51424;-77
2023/05/21 12:31:09;;;;;;;;;;;;;;;21.74;51.29;101128.98;2351486;75;50288;-78
2023/05/21 12:34:11;;;;;;;;;;;;;;;21.73;51.27;101125.95;2327641;75;51004;-77
2023/05/21 12:37:14;;;;;;;;;;;;;;;21.74;51.08;101127.64;2351158;75;50193;-77
2023/05/21 12:40:16;;;;;;;;;;;;;;;21.74;51.15;101119.56;2346783;75;50273;-77
2023/05/21 12:43:18;;;;;;;;;;;;;;;21.74;51.02;101119.56;2351443;75;51530;-77
2023/05/21 12:46:20;;;;;;;;;;;;;;;21.77;51.06;101117.83;2378721;74;52333;-77
2023/05/21 12:49:31;;;;;;;;;;;;;;;21.78;50.96;101120.83;2357044;74;51550;-77
2023/05/21 12:52:33;;;;;;;;;;;;;;;21.77;50.98;101116.48;2358930;75;50134;-79
2023/05/21 12:55:34;;;;;;;;;;;;;;;21.77;50.87;101120.52;2362829;75;49935;-78
2023/05/21 12:58:37;;;;;;;;;;;;;;;21.78;50.79;101114.09;2328997;75;52290;-77
2023/05/21 13:01:38;;;;;;;;;;;;;;;21.79;50.84;101110.91;2354327;74;50150;-78
2023/05/21 13:04:40;;;;;;;;;;;;;;;21.79;50.76;101103.66;2354143;74;50480;-79
2023/05/21 13:07:42;;;;;;;;;;;;;;;21.81;50.75;101112.88;2351922;75;50327;-78
2023/05/21 13:10:44;;;;;;;;;;;;;;;21.83;50.72;101118.91;2379288;74;50075;-78
2023/05/21 13:13:46;;;;;;;;;;;;;;;21.82;50.59;101118.08;2353552;75;51400;-78
2023/05/21 13:16:47;;;;;;;;;;;;;;;21.83;50.50;101121.60;2353455;75;50638;-78
2023/05/21 13:20:11;;;;;;;;;;;;;;;21.84;50.53;101119.25;2353264;74;50703;-78
2023/05/21 13:23:09;;;;;;;;;;;;;;;21.86;50.43;101115.82;2272341;76;22359;-77
2023/05/21 13:26:11;;;;;;;;;;;;;;;21.88;50.16;101105.69;2277091;76;50424;-77
2023/05/21 13:29:17;;;;;;;;;;;;;;;21.89;50.12;101114.11;2249405;77;50363;-77
2023/05/21 13:32:17;;;;;;;;;;;;;;;21.88;50.03;101111.91;2274239;77;22360;-78
2023/05/21 13:35:19;;;;;;;;;;;;;;;21.90;50.07;101096.39;2249242;77;51283;-77
2023/05/21 13:38:20;;;;;;;;;;;;;;;21.92;49.94;101094.34;2275438;76;50260;-78
2023/05/21 13:41:22;;;;;;;;;;;;;;;21.93;49.86;101086.56;2275443;77;50251;-78
2023/05/21 13:44:23;;;;;;;;;;;;;;;21.95;49.87;101081.81;2249285;77;50386;-80
2023/05/21 13:47:25;;;;;;;;;;;;;;;21.94;50.03;101087.42;2250136;77;51574;-78
2023/05/21 13:50:27;;;;;;;;;;;;;;;21.98;50.06;101094.06;2301790;75;52433;-78
2023/05/21 13:53:28;;;;;;;;;;;;;;;21.97;50.13;101084.33;2307563;76;51417;-77
2023/05/21 13:56:32;;;;;;;;;;;;;;;21.98;50.10;101077.08;2288381;76;50014;-77
2023/05/21 13:59:33;;;;;;;;;;;;;;;22.00;50.10;101080.41;2327590;76;22280;-78
2023/05/21 14:02:35;;;;;;;;;;;;;;;21.98;50.07;101077.08;2353572;75;50645;-77
2023/05/21 14:05:36;;;;;;;;;;;;;;;22.00;50.10;101081.76;2353743;75;50414;-78
2023/05/21 14:08:38;;;;;;;;;;;;;;;22.00;50.08;101075.02;2327576;76;50593;-78
2023/05/21 14:11:40;;;;;;;;;;;;;;;22.02;50.12;101074.32;2306270;76;51710;-78
2023/05/21 14:14:41;;;;;;;;;;;;;;;22.03;50.16;101078.67;2354730;74;50665;-77
2023/05/21 14:17:43;;;;;;;;;;;;;;;22.05;50.14;101079.31;2328142;75;51460;-78
2023/05/21 14:20:45;;;;;;;;;;;;;;;22.05;50.13;101079.31;2345311;75;50840;-78
2023/05/21 14:23:46;;;;;;;;;;;;;;;22.06;50.07;101071.02;2326798;75;51586;-77
2023/05/21 14:26:48;;;;;;;;;;;;;;;22.07;50.01;101079.95;2354977;75;51578;-77
2023/05/21 14:29:50;;;;;;;;;;;;;;;22.09;50.05;101076.52;2350375;75;51627;-78
2023/05/21 14:32:51;;;;;;;;;;;;;;;22.07;50.01;101070.00;2350719;75;51476;-77
2023/05/21 14:35:53;;;;;;;;;;;;;;;22.08;49.96;101075.70;2328339;75;51824;-77
2023/05/21 14:38:55;;;;;;;;;;;;;;;22.06;50.00;101089.88;2350437;75;51533;-77
2023/05/21 14:41:56;;;;;;;;;;;;;;;22.07;49.97;101084.83;2355695;75;51390;-78
2023/05/21 14:44:58;;;;;;;;;;;;;;;22.08;49.95;101073.00;2355473;74;50669;-78
2023/05/21 14:47:59;;;;;;;;;;;;;;;22.08;49.95;101082.95;2363222;74;50640;-78
2023/05/21 14:51:01;;;;;;;;;;;;;;;22.07;49.90;101083.48;2362489;74;50686;-78
2023/05/21 14:54:03;;;;;;;;;;;;;;;22.07;49.87;101092.08;2355088;75;50627;-78
2023/05/21 14:57:04;;;;;;;;;;;;;;;22.09;49.82;101083.27;2356869;75;50264;-78
2023/05/21 15:00:07;;;;;;;;;;;;;;;22.10;49.69;101082.25;2329190;75;52341;-78
2023/05/21 15:03:08;;;;;;;;;;;;;;;22.11;49.58;101073.95;2357297;75;50754;-79
2023/05/21 15:06:10;;;;;;;;;;;;;;;22.12;49.50;101084.25;2355163;75;50616;-78
2023/05/21 15:09:11;;;;;;;;;;;;;;;22.10;49.55;101075.00;2356750;75;51471;-78
2023/05/21 15:12:13;;;;;;;;;;;;;;;22.11;49.47;101073.12;2330272;75;52345;-77
2023/05/21 15:15:16;;;;;;;;;;;;;;;22.12;49.47;101066.73;2357710;75;50707;-78
2023/05/21 15:18:17;;;;;;;;;;;;;;;22.12;49.47;101064.86;2357473;75;51506;-78
2023/05/21 15:21:19;;;;;;;;;;;;;;;22.11;49.45;101063.17;2356525;75;51361;-78
2023/05/21 15:24:21;;;;;;;;;;;;;;;22.13;49.36;101071.08;2327718;75;51513;-78
2023/05/21 15:27:23;;;;;;;;;;;;;;;22.13;49.39;101069.20;2354186;75;51421;-78
2023/05/21 15:30:26;;;;;;;;;;;;;;;22.12;49.28;101058.64;2353197;75;50777;-78
2023/05/21 15:33:28;;;;;;;;;;;;;;;22.13;49.27;101064.34;2353827;75;51245;-78